Time;durP1;ratioP1;P1;durP2;ratioP2;P2;SDS_P1;SDS_P2;PMS_P1;PMS_P2;Temp;Humidity;BMP_temperature;BMP_pressure;BME280_temperature;BME280_humidity;BME280_pressure;Samples;Min_cycle;Max_cycle;Signal;HPM_P1;HPM_P2
2023/12/06 00:01:34;;;;;;;45.67;24.55;;;;;;;0.31;99.59;100338.13;4993863;28;20459;-57
2023/12/06 00:04:05;;;;;;;45.85;24.30;;;;;;;0.35;99.93;100332.25;5001111;28;20053;-58
2023/12/06 00:06:36;;;;;;;40.35;22.73;;;;;;;0.41;99.69;100329.81;4994390;28;20161;-58
2023/12/06 00:09:06;;;;;;;47.17;23.23;;;;;;;0.51;99.36;100330.06;5004224;28;20051;-57
2023/12/06 00:11:37;;;;;;;53.58;24.70;;;;;;;0.62;99.17;100333.75;4993939;28;20069;-57
2023/12/06 00:14:09;;;;;;;50.33;23.40;;;;;;;0.60;98.86;100314.84;4999485;28;20065;-58
2023/12/06 00:16:40;;;;;;;44.75;22.52;;;;;;;0.72;98.42;100319.44;4995019;28;20162;-57
2023/12/06 00:19:11;;;;;;;45.80;22.52;;;;;;;0.80;97.96;100323.03;5004235;28;20073;-58
2023/12/06 00:21:41;;;;;;;43.22;22.30;;;;;;;0.83;97.57;100311.13;4995069;28;20492;-58
2023/12/06 00:24:11;;;;;;;36.75;21.38;;;;;;;0.90;97.34;100311.28;5001859;28;20487;-57
2023/12/06 00:26:43;;;;;;;38.03;20.50;;;;;;;0.99;96.85;100303.78;4975134;28;20068;-57
2023/12/06 00:29:15;;;;;;;36.70;19.88;;;;;;;1.07;96.36;100303.13;4984841;28;20359;-57
2023/12/06 00:31:45;;;;;;;37.05;19.33;;;;;;;1.22;96.49;100302.59;4974928;28;20161;-58
2023/12/06 00:34:16;;;;;;;37.85;18.83;;;;;;;1.36;95.75;100297.75;4989132;28;20430;-58
2023/12/06 00:36:47;;;;;;;31.02;16.27;;;;;;;1.50;95.17;100290.31;4989487;28;20056;-58
2023/12/06 00:39:18;;;;;;;27.25;16.33;;;;;;;1.68;94.30;100280.38;4992850;28;20469;-58
2023/12/06 00:41:48;;;;;;;29.90;14.07;;;;;;;1.86;93.03;100281.56;4990459;28;20055;-59
2023/12/06 00:44:20;;;;;;;26.80;12.93;;;;;;;2.01;91.26;100270.69;5003455;28;20071;-58
2023/12/06 00:46:51;;;;;;;18.52;10.40;;;;;;;2.15;90.40;100270.09;4991808;28;20136;-58
2023/12/06 00:49:21;;;;;;;25.67;9.73;;;;;;;2.32;89.21;100261.78;5003678;28;20514;-58
2023/12/06 00:51:52;;;;;;;22.90;10.98;;;;;;;2.45;88.57;100253.41;4993478;28;20454;-58
2023/12/06 00:54:22;;;;;;;20.35;10.32;;;;;;;2.57;87.03;100251.03;5001295;28;20064;-57
2023/12/06 00:56:53;;;;;;;16.83;9.38;;;;;;;2.70;86.75;100248.66;4992649;28;20053;-57
2023/12/06 00:59:25;;;;;;;16.75;9.45;;;;;;;2.78;85.24;100247.03;5002117;28;20822;-57
2023/12/06 01:01:55;;;;;;;14.63;8.15;;;;;;;2.87;84.62;100252.34;4990889;28;20049;-57
2023/12/06 01:04:26;;;;;;;14.20;7.85;;;;;;;2.98;83.79;100240.44;4992811;28;20596;-59
2023/12/06 01:06:56;;;;;;;17.27;7.53;;;;;;;3.06;82.85;100262.94;5001630;28;20056;-58
2023/12/06 01:09:27;;;;;;;18.02;6.93;;;;;;;3.15;82.52;100242.41;4993301;28;20053;-58
2023/12/06 01:11:57;;;;;;;13.43;7.57;;;;;;;3.14;81.36;100230.31;5004323;28;20056;-58
2023/12/06 01:14:29;;;;;;;15.98;7.38;;;;;;;3.11;81.24;100222.56;4993403;28;20064;-58
2023/12/06 01:17:01;;;;;;;14.55;7.60;;;;;;;3.15;80.15;100221.75;5006515;28;20088;-57
2023/12/06 01:19:31;;;;;;;17.30;8.93;;;;;;;3.20;80.04;100194.28;4990849;28;20057;-58
2023/12/06 01:22:03;;;;;;;18.20;9.82;;;;;;;3.36;79.93;100196.19;5002627;28;20060;-58
2023/12/06 01:24:33;;;;;;;14.57;7.80;;;;;;;3.39;79.21;100201.38;4993637;28;20081;-57
2023/12/06 01:27:06;;;;;;;13.85;7.38;;;;;;;3.44;78.95;100189.41;5002792;28;20512;-57
2023/12/06 01:29:38;;;;;;;16.33;7.22;;;;;;;3.42;78.30;100180.78;4993127;28;20053;-56
2023/12/06 01:32:09;;;;;;;11.30;5.63;;;;;;;3.36;78.27;100179.81;5003702;28;20492;-57
2023/12/06 01:34:39;;;;;;;15.05;5.80;;;;;;;3.28;77.79;100181.47;4993989;28;20065;-57
2023/12/06 01:37:09;;;;;;;15.43;6.35;;;;;;;3.17;78.01;100176.13;5005616;28;20056;-56
2023/12/06 01:39:40;;;;;;;11.63;6.03;;;;;;;3.12;78.49;100167.47;4997722;28;20053;-57
2023/12/06 01:42:10;;;;;;;14.80;8.57;;;;;;;3.07;78.83;100166.56;5005494;28;20123;-56
2023/12/06 01:44:42;;;;;;;18.55;9.15;;;;;;;2.95;78.97;100168.16;4997336;28;20049;-57
2023/12/06 01:47:13;;;;;;;21.45;9.63;;;;;;;2.93;79.67;100163.81;5006705;28;20103;-57
2023/12/06 01:49:44;;;;;;;18.63;9.77;;;;;;;2.93;79.98;100154.34;4996565;28;20052;-57
2023/12/06 01:52:15;;;;;;;15.40;8.82;;;;;;;3.02;80.00;100154.47;5006070;28;20043;-57
2023/12/06 01:54:46;;;;;;;14.02;7.50;;;;;;;3.03;79.91;100156.19;4994554;28;20050;-58
2023/12/06 01:57:16;;;;;;;12.32;6.28;;;;;;;3.09;79.82;100150.22;5006879;28;20049;-58
2023/12/06 01:59:49;;;;;;;15.55;5.97;;;;;;;3.24;79.42;100149.56;4994420;28;20484;-57
2023/12/06 02:02:19;;;;;;;11.32;5.07;;;;;;;3.35;78.50;100147.09;5006496;28;20055;-58
2023/12/06 02:04:50;;;;;;;10.85;4.38;;;;;;;3.45;77.38;100139.47;4996195;28;20053;-58
2023/12/06 02:07:22;;;;;;;9.07;4.05;;;;;;;3.55;77.04;100134.41;5012849;28;20152;-56
2023/12/06 02:09:53;;;;;;;12.88;4.47;;;;;;;3.61;76.53;100134.44;5015806;28;20053;-57
2023/12/06 02:12:23;;;;;;;12.23;4.90;;;;;;;3.67;76.38;100129.34;5027105;28;20060;-58
2023/12/06 02:14:58;;;;;;;11.52;4.50;;;;;;;3.71;75.81;100125.06;5015943;28;20060;-57
2023/12/06 02:17:30;;;;;;;13.93;5.80;;;;;;;3.74;75.79;100125.94;5007657;28;20103;-57
2023/12/06 02:20:02;;;;;;;11.13;5.95;;;;;;;3.77;76.19;100119.94;5006133;28;20080;-56
2023/12/06 02:22:33;;;;;;;18.58;6.07;;;;;;;3.76;76.13;100121.66;4996439;28;20115;-57
2023/12/06 02:25:06;;;;;;;12.50;6.43;;;;;;;3.77;76.50;100115.66;5006614;28;20673;-57
2023/12/06 02:27:41;;;;;;;14.98;7.40;;;;;;;3.80;76.89;100110.50;4997206;28;20092;-57
2023/12/06 02:30:12;;;;;;;10.93;6.28;;;;;;;3.81;77.05;100109.66;5006840;28;20046;-58
2023/12/06 02:32:42;;;;;;;21.98;8.10;;;;;;;3.87;77.39;100109.72;4996715;28;20140;-57
2023/12/06 02:35:20;;;;;;;17.33;7.53;;;;;;;3.91;76.69;100112.31;5006250;28;20042;-57
2023/12/06 02:37:53;;;;;;;14.35;6.90;;;;;;;3.93;76.69;100115.78;4996081;28;20060;-58
2023/12/06 02:40:25;;;;;;;15.93;5.78;;;;;;;3.98;76.18;100114.09;5005319;28;20061;-58
2023/12/06 02:42:57;;;;;;;11.45;5.70;;;;;;;4.03;76.02;100112.41;5005813;28;20082;-57
2023/12/06 02:45:28;;;;;;;15.77;5.38;;;;;;;4.07;75.31;100109.03;4996659;28;20053;-58
2023/12/06 02:47:58;;;;;;;10.77;4.50;;;;;;;4.09;74.65;100099.53;5004940;28;20143;-57
2023/12/06 02:50:29;;;;;;;12.00;4.97;;;;;;;4.15;75.11;100075.47;4995780;28;20381;-57
2023/12/06 02:52:59;;;;;;;7.78;3.92;;;;;;;4.16;74.44;100093.53;5005563;28;20395;-58
2023/12/06 02:55:30;;;;;;;9.18;3.60;;;;;;;4.20;73.81;100084.97;4995636;28;20053;-57
2023/12/06 02:58:02;;;;;;;6.60;3.97;;;;;;;4.21;73.44;100085.81;5005225;28;20141;-56
2023/12/06 03:00:32;;;;;;;9.40;3.70;;;;;;;4.22;73.53;100083.25;4993339;28;20042;-58
2023/12/06 03:03:05;;;;;;;9.95;3.30;;;;;;;4.25;73.19;100083.28;4996777;28;20050;-56
2023/12/06 03:05:36;;;;;;;8.70;3.90;;;;;;;4.35;73.12;100083.34;4995725;28;20053;-57
2023/12/06 03:08:06;;;;;;;8.75;3.40;;;;;;;4.37;72.37;100082.50;5005781;28;20148;-57
2023/12/06 03:10:36;;;;;;;10.55;3.65;;;;;;;4.47;72.46;100080.81;4995575;28;20148;-58
2023/12/06 03:13:08;;;;;;;8.98;3.95;;;;;;;4.52;72.27;100086.88;5001894;28;20076;-58
2023/12/06 03:15:39;;;;;;;16.27;4.55;;;;;;;4.49;71.91;100081.69;4976607;28;20056;-58
2023/12/06 03:18:09;;;;;;;8.77;3.63;;;;;;;4.52;71.41;100081.72;4990118;28;20705;-57
2023/12/06 03:20:40;;;;;;;7.85;4.28;;;;;;;4.58;71.75;100080.88;4995121;28;20079;-58
2023/12/06 03:23:11;;;;;;;9.65;4.00;;;;;;;4.65;71.55;100083.50;5005333;28;20049;-57
2023/12/06 03:25:41;;;;;;;7.53;3.60;;;;;;;4.69;71.60;100085.25;4995899;28;20059;-57
2023/12/06 03:28:13;;;;;;;9.52;3.80;;;;;;;4.75;71.74;100080.09;5005689;28;20108;-57
2023/12/06 03:30:44;;;;;;;8.35;3.80;;;;;;;4.78;71.63;100068.88;4995222;28;20053;-56
2023/12/06 03:33:14;;;;;;;9.35;4.20;;;;;;;4.79;71.54;100061.97;5005073;28;20743;-57
2023/12/06 03:35:45;;;;;;;9.38;4.28;;;;;;;4.83;71.24;100055.97;4994936;28;20487;-57
2023/12/06 03:38:15;;;;;;;7.53;4.00;;;;;;;4.83;71.08;100055.97;5004538;28;20053;-57
2023/12/06 03:40:46;;;;;;;9.68;3.92;;;;;;;4.81;70.80;100057.69;4992708;28;20050;-57
2023/12/06 03:43:18;;;;;;;16.45;4.40;;;;;;;4.77;70.83;100056.81;5004173;28;20459;-57
2023/12/06 03:45:48;;;;;;;10.80;3.90;;;;;;;4.72;71.40;100051.63;4994866;28;20046;-58
2023/12/06 03:48:19;;;;;;;9.15;4.05;;;;;;;4.70;71.07;100045.56;5005302;28;20111;-57
2023/12/06 03:50:49;;;;;;;10.68;4.05;;;;;;;4.61;70.98;100037.75;4994386;28;20053;-57
2023/12/06 03:53:20;;;;;;;9.07;4.32;;;;;;;4.55;71.27;100035.16;5004546;28;20073;-56
2023/12/06 03:55:50;;;;;;;9.88;3.90;;;;;;;4.45;70.98;100033.38;4994582;28;20069;-57
2023/12/06 03:58:22;;;;;;;7.22;4.00;;;;;;;4.42;71.69;100033.34;5004670;28;20080;-57
2023/12/06 04:00:53;;;;;;;9.55;3.30;;;;;;;4.37;71.78;100019.50;4993435;28;20049;-57
2023/12/06 04:03:24;;;;;;;13.82;4.32;;;;;;;4.35;71.29;100026.44;5004067;28;20060;-58
2023/12/06 04:05:54;;;;;;;9.48;3.95;;;;;;;4.32;71.60;100022.97;5004361;28;20825;-57
2023/12/06 04:08:25;;;;;;;8.73;3.53;;;;;;;4.29;71.53;100028.13;4999973;28;20061;-57
2023/12/06 04:10:55;;;;;;;11.68;3.65;;;;;;;4.28;71.69;100026.38;5004192;28;20118;-59
2023/12/06 04:13:27;;;;;;;6.45;4.03;;;;;;;4.26;71.77;100012.56;4995676;28;20096;-57
2023/12/06 04:15:58;;;;;;;7.80;3.42;;;;;;;4.23;71.73;100020.31;5004298;28;20049;-59
2023/12/06 04:18:28;;;;;;;10.43;3.40;;;;;;;4.22;71.50;100026.38;4994660;28;20065;-57
2023/12/06 04:20:59;;;;;;;8.48;4.00;;;;;;;4.22;71.00;100031.53;5004399;28;20057;-58
2023/12/06 04:23:29;;;;;;;11.05;4.70;;;;;;;4.23;70.99;100028.09;4986642;28;20104;-56
2023/12/06 04:26:00;;;;;;;7.45;3.75;;;;;;;4.22;71.07;100031.53;5000821;28;20171;-58
2023/12/06 04:28:32;;;;;;;12.02;3.42;;;;;;;4.20;70.23;100028.06;4993910;28;20060;-58
2023/12/06 04:31:02;;;;;;;7.95;3.15;;;;;;;4.09;70.35;100027.13;5003882;28;20141;-58
2023/12/06 04:33:33;;;;;;;8.88;3.10;;;;;;;4.10;70.67;100031.47;4994324;28;20815;-58
2023/12/06 04:36:03;;;;;;;12.90;3.20;;;;;;;4.11;70.93;100038.34;5004129;28;20064;-58
2023/12/06 04:38:34;;;;;;;10.13;3.00;;;;;;;4.04;71.21;100031.41;4993888;28;20075;-58
2023/12/06 04:41:05;;;;;;;7.85;2.92;;;;;;;4.03;71.05;100030.53;5003801;28;20061;-58
2023/12/06 04:43:37;;;;;;;7.93;3.30;;;;;;;3.85;71.30;100010.63;4991017;28;20392;-57
2023/12/06 04:46:07;;;;;;;11.55;3.67;;;;;;;4.04;71.38;100046.91;4993952;28;20135;-56
2023/12/06 04:48:38;;;;;;;8.77;3.55;;;;;;;4.09;71.53;100050.41;4980094;28;20068;-56
2023/12/06 04:51:09;;;;;;;8.23;3.95;;;;;;;4.15;71.70;100042.69;5004423;28;20053;-56
2023/12/06 04:53:39;;;;;;;6.93;3.15;;;;;;;4.19;71.50;100035.81;4986968;28;20045;-58
2023/12/06 04:56:10;;;;;;;7.22;3.05;;;;;;;4.28;71.66;100031.56;4995674;28;20059;-58
2023/12/06 04:58:43;;;;;;;7.28;3.13;;;;;;;4.30;71.20;100035.03;4985932;28;20085;-56
2023/12/06 05:01:14;;;;;;;8.07;2.95;;;;;;;4.29;71.10;100030.72;4997600;28;20125;-58
2023/12/06 05:03:44;;;;;;;6.47;2.90;;;;;;;4.26;71.24;100030.69;4980626;28;20138;-58
2023/12/06 05:06:15;;;;;;;7.45;3.03;;;;;;;4.14;71.40;100017.69;5002602;28;20360;-58
2023/12/06 05:08:45;;;;;;;10.13;3.35;;;;;;;4.03;71.86;100024.53;4979157;28;20097;-57
2023/12/06 05:11:16;;;;;;;8.40;4.25;;;;;;;3.84;72.42;100011.47;4986102;28;20076;-57
2023/12/06 05:13:48;;;;;;;14.30;4.28;;;;;;;3.78;72.32;100021.75;4995055;28;20115;-56
2023/12/06 05:16:18;;;;;;;6.43;3.38;;;;;;;3.67;72.88;100020.84;5007513;28;20132;-56
2023/12/06 05:18:48;;;;;;;10.73;3.70;;;;;;;3.65;73.33;100017.38;4997267;28;20481;-57
2023/12/06 05:21:19;;;;;;;9.40;3.92;;;;;;;3.66;73.53;100013.91;4991159;28;20053;-57
2023/12/06 05:23:50;;;;;;;12.30;4.05;;;;;;;3.66;73.72;100004.44;4979599;28;20116;-56
2023/12/06 05:26:20;;;;;;;7.45;3.45;;;;;;;3.71;73.47;100007.06;5007631;28;20132;-58
2023/12/06 05:28:52;;;;;;;10.48;4.38;;;;;;;3.52;73.31;99981.94;4997186;28;20148;-56
2023/12/06 05:31:22;;;;;;;11.35;3.50;;;;;;;3.66;73.21;100006.16;5007379;28;20136;-57
2023/12/06 05:33:53;;;;;;;16.55;3.90;;;;;;;3.61;73.31;100002.69;4994577;28;20469;-57
2023/12/06 05:36:24;;;;;;;11.02;3.97;;;;;;;3.61;73.18;100005.25;5002881;28;20141;-58
2023/12/06 05:38:54;;;;;;;16.67;3.67;;;;;;;3.58;73.13;100016.44;5004017;28;20053;-57
2023/12/06 05:41:26;;;;;;;7.45;3.30;;;;;;;3.56;73.11;100006.94;4994061;28;20064;-57
2023/12/06 05:43:58;;;;;;;9.15;3.13;;;;;;;3.50;73.01;100004.34;5004107;28;20049;-55
2023/12/06 05:46:28;;;;;;;6.97;3.42;;;;;;;3.45;73.49;100010.31;4977854;28;20151;-56
2023/12/06 05:48:59;;;;;;;7.63;3.33;;;;;;;3.36;73.39;100015.38;5000611;28;20056;-57
2023/12/06 05:51:29;;;;;;;5.40;3.33;;;;;;;3.29;73.83;100023.06;4990953;28;20050;-57
2023/12/06 05:54:00;;;;;;;14.35;3.97;;;;;;;3.21;74.08;100020.41;4996124;28;20132;-58
2023/12/06 05:56:30;;;;;;;10.40;3.40;;;;;;;3.16;74.50;100016.94;4988878;28;20531;-57
2023/12/06 05:59:02;;;;;;;9.60;3.63;;;;;;;3.00;74.75;99996.13;4994725;28;20077;-57
2023/12/06 06:01:33;;;;;;;10.43;3.25;;;;;;;3.13;75.17;100016.91;4991278;28;20065;-58
2023/12/06 06:04:03;;;;;;;11.10;3.30;;;;;;;3.15;75.70;100004.88;4987255;28;20080;-57
2023/12/06 06:06:35;;;;;;;12.05;3.90;;;;;;;3.15;75.44;100012.63;4995205;28;20057;-58
2023/12/06 06:09:06;;;;;;;8.68;3.50;;;;;;;3.13;75.78;100016.91;5006614;28;20409;-57
2023/12/06 06:11:37;;;;;;;11.90;3.10;;;;;;;3.11;75.69;100023.75;4996547;28;20400;-57
2023/12/06 06:14:09;;;;;;;12.57;3.83;;;;;;;3.12;75.81;100025.47;5006676;28;20081;-57
2023/12/06 06:16:39;;;;;;;8.57;3.38;;;;;;;3.10;76.49;100022.91;4995433;28;20045;-58
2023/12/06 06:19:10;;;;;;;7.03;3.10;;;;;;;3.07;76.81;100016.81;5006376;28;20041;-58
2023/12/06 06:21:41;;;;;;;8.82;3.55;;;;;;;3.07;76.70;100022.00;4996932;28;20049;-57
2023/12/06 06:24:11;;;;;;;8.05;2.92;;;;;;;2.96;76.64;100002.09;5006710;28;20428;-56
2023/12/06 06:26:42;;;;;;;6.85;2.80;;;;;;;3.08;76.42;100023.75;4997152;28;20138;-56
2023/12/06 06:29:14;;;;;;;6.15;2.72;;;;;;;3.08;76.56;100016.00;5007214;28;20744;-57
2023/12/06 06:31:44;;;;;;;8.98;2.72;;;;;;;3.05;76.87;100013.38;4996750;28;20069;-56
2023/12/06 06:34:14;;;;;;;8.77;3.20;;;;;;;3.06;76.68;100020.28;5006208;28;20045;-56
2023/12/06 06:36:45;;;;;;;6.80;2.92;;;;;;;3.03;76.88;100019.38;4993772;28;20038;-56
2023/12/06 06:39:15;;;;;;;8.43;3.08;;;;;;;3.03;76.06;100015.94;5006390;28;20148;-57
2023/12/06 06:41:46;;;;;;;7.75;3.00;;;;;;;3.00;75.83;100021.94;4993848;28;20519;-57
2023/12/06 06:44:18;;;;;;;10.10;3.08;;;;;;;3.00;75.97;100011.63;5003312;28;20061;-56
2023/12/06 06:46:48;;;;;;;12.57;4.32;;;;;;;2.99;75.94;100015.03;4994106;28;20401;-56
2023/12/06 06:49:19;;;;;;;10.35;3.03;;;;;;;2.95;75.66;100008.13;5006104;28;20049;-56
2023/12/06 06:51:49;;;;;;;11.80;4.80;;;;;;;2.75;75.60;99994.16;4994803;28;20041;-56
2023/12/06 06:54:20;;;;;;;17.92;5.55;;;;;;;2.81;75.59;100022.59;5006184;28;20063;-56
2023/12/06 06:56:50;;;;;;;15.50;4.30;;;;;;;2.76;75.53;100016.50;4995203;28;20049;-56
2023/12/06 06:59:22;;;;;;;12.45;4.40;;;;;;;2.70;75.46;100013.88;5003015;28;20063;-56
2023/12/06 07:01:53;;;;;;;9.30;3.53;;;;;;;2.62;75.49;100018.06;4995016;28;20060;-56
2023/12/06 07:04:24;;;;;;;8.57;3.72;;;;;;;2.50;75.80;99998.16;5002917;28;20060;-57
2023/12/06 07:06:54;;;;;;;10.25;3.97;;;;;;;2.04;76.22;99940.84;4995076;28;20693;-58
2023/12/06 07:09:25;;;;;;;14.82;4.60;;;;;;;2.41;75.24;100004.06;4998081;28;20129;-58
2023/12/06 07:11:56;;;;;;;9.68;4.22;;;;;;;2.39;75.70;100005.75;5005246;28;20141;-56
2023/12/06 07:14:28;;;;;;;11.32;3.50;;;;;;;2.35;75.83;100002.28;4992756;28;20420;-57
2023/12/06 07:16:59;;;;;;;9.77;3.35;;;;;;;2.29;75.81;99993.59;5005302;28;20049;-58
2023/12/06 07:19:29;;;;;;;7.38;3.50;;;;;;;2.27;75.54;99995.28;4994603;28;20063;-57
2023/12/06 07:22:00;;;;;;;6.85;3.10;;;;;;;2.23;75.35;99998.69;5005111;28;20148;-56
2023/12/06 07:24:30;;;;;;;8.20;3.03;;;;;;;2.20;75.86;99998.63;4995443;28;20049;-57
2023/12/06 07:27:01;;;;;;;8.95;3.55;;;;;;;2.12;75.85;99986.53;5003647;28;20084;-58
2023/12/06 07:29:33;;;;;;;11.20;3.20;;;;;;;2.22;75.63;100002.09;4994769;28;20081;-56
2023/12/06 07:32:03;;;;;;;9.25;3.10;;;;;;;2.25;75.57;100002.16;5002275;28;20380;-56
2023/12/06 07:34:33;;;;;;;12.32;3.72;;;;;;;2.26;75.32;99993.56;4995196;28;20992;-56
2023/12/06 07:37:18;;;;;;;13.98;4.22;;;;;;;2.24;74.99;99992.66;5005144;28;20050;-56
2023/12/06 07:39:49;;;;;;;12.60;5.53;;;;;;;2.19;75.07;99994.31;4994709;28;20432;-56
2023/12/06 07:42:20;;;;;;;14.43;4.53;;;;;;;2.11;75.35;99984.78;5005280;28;20041;-56
2023/12/06 07:44:52;;;;;;;8.55;3.40;;;;;;;2.08;75.71;99984.72;4994010;28;20065;-56
2023/12/06 07:47:23;;;;;;;9.00;3.58;;;;;;;2.07;76.01;99983.03;5004866;28;20042;-56
2023/12/06 07:49:55;;;;;;;20.25;5.97;;;;;;;2.09;76.56;99986.44;4994898;28;20057;-56
2023/12/06 07:52:25;;;;;;;36.30;12.30;;;;;;;2.10;76.29;99988.22;4993735;28;20045;-56
2023/12/06 07:54:56;;;;;;;19.63;7.47;;;;;;;2.07;76.29;99983.03;4994757;28;20069;-56
2023/12/06 07:57:28;;;;;;;13.23;5.90;;;;;;;1.99;76.40;99994.91;4976008;28;20058;-56
2023/12/06 08:00:00;;;;;;;12.13;5.25;;;;;;;1.81;76.28;99985.22;4984737;28;20107;-57
2023/12/06 08:02:32;;;;;;;10.90;5.47;;;;;;;1.70;76.80;99987.63;4975127;28;20503;-56
2023/12/06 08:05:02;;;;;;;10.82;5.40;;;;;;;1.60;77.78;99996.06;4985007;28;20144;-56
2023/12/06 08:07:33;;;;;;;11.63;5.65;;;;;;;1.53;78.00;99991.66;4975451;28;20060;-56
2023/12/06 08:10:08;;;;;;;7.07;3.90;;;;;;;1.52;78.59;99992.47;4987645;28;20057;-58
2023/12/06 08:12:38;;;;;;;11.98;4.57;;;;;;;1.52;78.77;99987.34;4994944;28;20049;-56
2023/12/06 08:15:11;;;;;;;8.88;4.00;;;;;;;1.51;79.42;99990.75;5004623;28;20053;-56
2023/12/06 08:17:42;;;;;;;11.05;4.20;;;;;;;1.47;79.66;99983.81;4994567;28;20060;-56
2023/12/06 08:20:13;;;;;;;18.23;5.20;;;;;;;1.43;79.91;99989.78;5004300;28;20053;-56
2023/12/06 08:22:43;;;;;;;15.30;5.15;;;;;;;1.35;80.04;99986.19;4994481;28;20068;-58
2023/12/06 08:25:14;;;;;;;17.85;5.35;;;;;;;1.24;80.57;99981.75;5004544;28;20122;-57
2023/12/06 08:27:44;;;;;;;12.82;5.20;;;;;;;1.21;80.53;99986.84;4975381;28;20097;-57
2023/12/06 08:30:17;;;;;;;12.68;4.60;;;;;;;1.13;81.30;99983.28;4995673;28;20057;-56
2023/12/06 08:32:47;;;;;;;9.43;4.65;;;;;;;0.80;81.42;99943.25;4994185;28;20056;-57
2023/12/06 08:35:18;;;;;;;9.25;4.85;;;;;;;0.93;81.81;99969.22;5004044;28;20137;-57
2023/12/06 08:37:48;;;;;;;8.63;4.30;;;;;;;0.84;82.09;99968.19;4993705;28;20061;-57
2023/12/06 08:40:19;;;;;;;12.60;5.53;;;;;;;0.67;82.06;99956.72;5003348;28;20045;-57
2023/12/06 08:42:50;;;;;;;13.00;5.00;;;;;;;0.63;82.60;99975.53;4973983;28;20484;-57
2023/12/06 08:45:22;;;;;;;8.68;4.75;;;;;;;0.56;83.39;99971.09;4984309;28;20062;-57
2023/12/06 08:47:52;;;;;;;10.80;5.10;;;;;;;-0.20;83.79;99860.84;4974473;28;20484;-57
2023/12/06 08:50:22;;;;;;;11.85;6.57;;;;;;;0.37;84.38;99964.72;4985503;28;20152;-57
2023/12/06 08:52:53;;;;;;;13.98;5.35;;;;;;;0.34;85.50;99965.53;4993590;28;20553;-58
2023/12/06 08:55:23;;;;;;;13.50;7.05;;;;;;;0.30;86.08;99960.28;5004046;28;20058;-57
2023/12/06 08:57:54;;;;;;;16.92;7.85;;;;;;;0.24;87.41;99963.59;4993653;28;20053;-58
2023/12/06 09:00:26;;;;;;;13.02;7.57;;;;;;;0.21;88.32;99966.13;5002859;28;20844;-58
2023/12/06 09:02:56;;;;;;;18.77;8.55;;;;;;;0.16;88.63;99967.72;5003893;28;20128;-58
2023/12/06 09:05:27;;;;;;;27.02;11.10;;;;;;;0.12;89.31;99965.91;4993792;28;20396;-57
2023/12/06 09:07:57;;;;;;;24.33;11.18;;;;;;;0.07;90.00;99964.94;5003619;28;20054;-57
2023/12/06 09:10:28;;;;;;;24.13;12.02;;;;;;;-0.02;91.04;99956.22;4993637;28;20057;-58
2023/12/06 09:12:58;;;;;;;25.90;14.00;;;;;;;-0.07;91.89;99957.81;4997468;28;20049;-58
2023/12/06 09:15:31;;;;;;;30.55;12.85;;;;;;;-0.13;92.95;99949.97;4983582;28;20068;-58
2023/12/06 09:18:01;;;;;;;28.45;14.43;;;;;;;-0.19;94.01;99949.84;5003445;28;20143;-57
2023/12/06 09:20:32;;;;;;;32.70;15.65;;;;;;;-0.17;95.02;99948.19;4992807;28;20067;-58
2023/12/06 09:23:02;;;;;;;36.53;16.30;;;;;;;-0.17;95.91;99958.47;5002971;28;20058;-57
2023/12/06 09:25:32;;;;;;;35.88;17.10;;;;;;;-0.22;96.84;99955.78;4990942;28;20053;-57
2023/12/06 09:28:04;;;;;;;37.80;17.35;;;;;;;-0.22;97.31;99954.94;5002875;28;20045;-57
2023/12/06 09:30:36;;;;;;;35.55;17.75;;;;;;;-0.25;97.93;99955.72;4991639;28;20153;-57
2023/12/06 09:33:07;;;;;;;41.80;19.33;;;;;;;-0.26;98.45;99947.97;5003276;28;20141;-57
2023/12/06 09:35:37;;;;;;;41.22;18.83;;;;;;;-0.26;99.14;99947.97;4993329;28;20049;-58
2023/12/06 09:38:08;;;;;;;44.72;18.63;;;;;;;-0.25;99.99;99944.56;5004602;28;20053;-57
2023/12/06 09:40:38;;;;;;;40.58;18.15;;;;;;;-0.19;100.00;99955.00;4993363;28;20046;-57
2023/12/06 09:43:08;;;;;;;42.00;17.65;;;;;;;-0.10;100.00;99965.47;5003001;28;20059;-57
2023/12/06 09:45:41;;;;;;;37.17;18.67;;;;;;;-0.03;100.00;99951.91;4993440;28;20069;-59
2023/12/06 09:48:13;;;;;;;36.75;17.80;;;;;;;-0.01;100.00;99950.25;4998349;28;20049;-57
2023/12/06 09:50:44;;;;;;;33.38;16.40;;;;;;;0.05;100.00;99938.34;4993784;28;20058;-57
2023/12/06 09:53:14;;;;;;;27.77;14.27;;;;;;;0.14;100.00;99933.41;5000732;28;20049;-56
2023/12/06 09:55:47;;;;;;;31.70;15.90;;;;;;;0.23;100.00;99928.47;4992859;28;20072;-58
2023/12/06 09:58:19;;;;;;;33.00;15.55;;;;;;;0.29;100.00;99938.84;5002653;28;20045;-57
2023/12/06 10:00:51;;;;;;;35.58;16.48;;;;;;;0.27;100.00;99935.38;4996589;28;20049;-58
2023/12/06 10:03:23;;;;;;;26.15;15.70;;;;;;;0.31;100.00;99937.19;5007152;28;20045;-57
2023/12/06 10:05:58;;;;;;;29.38;16.25;;;;;;;0.37;100.00;99926.16;4996355;28;20585;-57
2023/12/06 10:08:28;;;;;;;30.38;15.60;;;;;;;0.42;100.00;99929.69;4996846;28;20068;-58
2023/12/06 10:11:06;;;;;;;32.80;18.38;;;;;;;-0.25;100.00;99811.06;5006294;28;20064;-59
2023/12/06 10:13:38;;;;;;;31.98;16.13;;;;;;;-0.06;100.00;99843.97;4994602;28;20144;-57
2023/12/06 10:16:16;;;;;;;36.28;17.70;;;;;;;0.40;100.00;99927.09;5006096;28;20049;-58
2023/12/06 10:18:48;;;;;;;36.90;18.13;;;;;;;0.39;100.00;99930.50;4993390;28;20140;-57
2023/12/06 10:21:20;;;;;;;37.35;19.20;;;;;;;0.33;100.00;99925.25;5006676;28;20077;-57
2023/12/06 10:23:58;;;;;;;33.08;18.08;;;;;;;0.28;100.00;99908.00;4993869;28;20091;-57
2023/12/06 10:26:29;;;;;;;42.35;18.10;;;;;;;0.39;100.00;99915.06;4992510;28;20179;-57
2023/12/06 10:29:01;;;;;;;35.55;17.48;;;;;;;0.46;100.00;99915.19;4999067;28;20053;-57
2023/12/06 10:31:39;;;;;;;34.95;17.23;;;;;;;0.50;100.00;99907.59;4996330;28;20136;-57
2023/12/06 10:34:10;;;;;;;33.05;18.10;;;;;;;0.57;100.00;99913.69;5006158;28;20088;-58
2023/12/06 10:36:42;;;;;;;33.10;16.83;;;;;;;0.64;100.00;99912.97;4995571;28;20083;-57
2023/12/06 10:39:13;;;;;;;34.90;17.88;;;;;;;0.68;100.00;99912.19;4990207;28;20053;-58
2023/12/06 10:41:48;;;;;;;27.17;16.90;;;;;;;0.70;100.00;99912.19;4982164;28;20047;-57
2023/12/06 10:44:19;;;;;;;29.88;16.75;;;;;;;0.75;100.00;99914.03;4997836;28;20061;-59
2023/12/06 10:46:51;;;;;;;33.53;16.58;;;;;;;0.77;100.00;99909.75;4976192;28;20511;-58
2023/12/06 10:49:34;;;;;;;33.97;16.48;;;;;;;0.75;100.00;99906.31;4983533;28;20053;-58
2023/12/06 10:52:06;;;;;;;35.97;16.92;;;;;;;0.78;100.00;99908.94;5001773;28;20068;-59
2023/12/06 10:54:38;;;;;;;32.78;16.48;;;;;;;0.82;100.00;99909.84;4992462;28;20140;-59
2023/12/06 10:57:09;;;;;;;33.28;17.20;;;;;;;0.85;100.00;99905.63;5002094;28;20136;-59
2023/12/06 10:59:40;;;;;;;28.60;15.02;;;;;;;0.96;100.00;99917.81;4991438;28;20064;-59
2023/12/06 11:02:12;;;;;;;27.90;15.63;;;;;;;1.02;100.00;99911.06;5002058;28;20130;-59
2023/12/06 11:04:49;;;;;;;29.02;16.27;;;;;;;1.12;100.00;99898.31;4992001;28;20049;-59
2023/12/06 11:07:37;;;;;;;31.92;16.02;;;;;;;1.18;100.00;99896.72;5001903;28;20376;-59
2023/12/06 11:10:19;;;;;;;29.33;16.33;;;;;;;1.23;100.00;99902.81;5001312;28;20140;-58
2023/12/06 11:13:08;;;;;;;30.05;14.80;;;;;;;1.21;100.00;99906.19;4991891;28;20140;-58
2023/12/06 11:15:51;;;;;;;34.95;16.65;;;;;;;1.22;100.00;99903.66;4991949;28;20136;-59
2023/12/06 11:18:27;;;;;;;33.20;15.75;;;;;;;1.22;100.00;99902.78;5000876;28;20041;-59
2023/12/06 11:20:58;;;;;;;35.63;15.95;;;;;;;1.22;100.00;99901.09;4990884;28;20132;-59
2023/12/06 11:23:29;;;;;;;31.40;16.33;;;;;;;1.19;100.00;99911.31;4990892;28;20117;-59
2023/12/06 11:25:59;;;;;;;37.42;15.93;;;;;;;1.17;100.00;99913.00;5000831;28;20159;-58
2023/12/06 11:28:39;;;;;;;33.83;16.63;;;;;;;1.13;100.00;99906.09;4990842;28;20061;-59
2023/12/06 11:31:13;;;;;;;29.63;16.90;;;;;;;1.22;100.00;99908.81;5000740;28;20077;-57
2023/12/06 11:33:55;;;;;;;33.72;14.68;;;;;;;1.22;100.00;99906.25;5001598;28;20121;-58
2023/12/06 11:36:26;;;;;;;32.88;16.30;;;;;;;1.18;100.00;99916.47;4996679;28;20056;-58
2023/12/06 11:38:57;;;;;;;32.90;15.35;;;;;;;1.14;100.00;99923.25;5004643;28;20136;-57
2023/12/06 11:41:27;;;;;;;28.63;14.38;;;;;;;1.20;100.00;99918.22;4994670;28;20064;-58
2023/12/06 11:44:00;;;;;;;28.27;13.65;;;;;;;1.19;100.00;99916.47;5004262;28;20042;-58
2023/12/06 11:46:33;;;;;;;27.60;14.68;;;;;;;0.91;100.00;99878.28;4992190;28;20049;-56